createdAt,value
2023-02-11T00:00:42.579Z,13.52
2023-02-11T00:03:45.204Z,12.55
2023-02-11T00:06:47.899Z,11.50
2023-02-11T00:09:50.551Z,13.60
2023-02-11T00:12:54.074Z,13.40
2023-02-11T00:15:56.724Z,13.50
2023-02-11T00:19:02.939Z,13.48
2023-02-11T00:22:08.419Z,12.63
2023-02-11T00:25:32.014Z,13.32
2023-02-11T00:28:34.584Z,13.98
2023-02-11T00:31:37.276Z,13.52
2023-02-11T00:34:41.254Z,12.73
2023-02-11T00:37:43.847Z,15.17
2023-02-11T00:40:46.492Z,13.90
2023-02-11T00:43:49.528Z,13.88
2023-02-11T00:46:54.614Z,10.77
2023-02-11T00:49:59.288Z,14.73
2023-02-11T00:53:05.866Z,13.20
2023-02-11T00:56:11.528Z,12.13
2023-02-11T00:59:17.236Z,14.23
2023-02-11T01:02:19.847Z,13.75
2023-02-11T01:05:22.557Z,15.30
2023-02-11T01:08:25.324Z,15.13
2023-02-11T01:11:30.990Z,14.60
2023-02-11T01:14:33.595Z,15.02
2023-02-11T01:17:36.360Z,14.45
2023-02-11T01:20:39.025Z,13.80
2023-02-11T01:23:41.671Z,14.07
2023-02-11T01:26:44.208Z,12.82
2023-02-11T01:29:46.786Z,14.88
2023-02-11T01:32:49.339Z,16.13
2023-02-11T01:35:54.839Z,14.45
2023-02-11T01:38:57.342Z,14.83
2023-02-11T01:41:59.998Z,13.43
2023-02-11T01:45:23.332Z,13.68
2023-02-11T01:48:38.962Z,14.23
2023-02-11T01:51:47.088Z,14.10
2023-02-11T01:55:14.241Z,14.00
2023-02-11T01:58:16.866Z,13.40
2023-02-11T02:01:24.687Z,13.60
2023-02-11T02:04:31.797Z,14.98
2023-02-11T02:07:45.740Z,13.93
2023-02-11T02:10:54.761Z,13.43
2023-02-11T02:13:57.504Z,14.82
2023-02-11T02:17:00.112Z,14.63
2023-02-11T02:20:32.402Z,14.57
2023-02-11T02:23:53.074Z,14.48
2023-02-11T02:27:16.399Z,14.60
2023-02-11T02:30:21.952Z,14.02
2023-02-11T02:33:29.819Z,14.68
2023-02-11T02:36:54.825Z,13.85
2023-02-11T02:39:59.804Z,15.65
2023-02-11T02:43:03.167Z,14.10
2023-02-11T02:46:24.284Z,15.27
2023-02-11T02:49:26.875Z,14.68
2023-02-11T02:52:39.941Z,15.38
2023-02-11T02:55:48.728Z,14.45
2023-02-11T02:58:51.352Z,14.90
2023-02-11T03:02:24.467Z,15.55
2023-02-11T03:05:52.076Z,16.27
2023-02-11T03:09:14.750Z,13.57
2023-02-11T03:12:17.873Z,12.95
2023-02-11T03:15:22.699Z,13.87
2023-02-11T03:18:28.366Z,12.23
2023-02-11T03:21:36.577Z,12.73
2023-02-11T03:24:42.681Z,13.18
2023-02-11T03:28:06.113Z,12.30
2023-02-11T03:31:55.331Z,12.20
2023-02-11T03:35:02.106Z,14.02
2023-02-11T03:38:16.121Z,14.60
2023-02-11T03:41:21.579Z,10.75
2023-02-11T03:44:25.476Z,14.07
2023-02-11T03:47:30.477Z,12.27
2023-02-11T03:50:34.051Z,13.23
2023-02-11T03:53:39.048Z,13.95
2023-02-11T03:56:52.658Z,12.45
2023-02-11T03:59:59.499Z,12.20
2023-02-11T04:03:02.701Z,13.30
2023-02-11T04:06:05.784Z,11.82
2023-02-11T04:09:08.968Z,9.45
2023-02-11T04:12:11.599Z,13.30
2023-02-11T04:15:14.682Z,14.18
2023-02-11T04:18:17.378Z,14.37
2023-02-11T04:21:20.085Z,13.18
2023-02-11T04:24:22.731Z,13.80
2023-02-11T04:27:25.434Z,13.35
2023-02-11T04:30:28.026Z,18.85
2023-02-11T04:33:30.565Z,15.13
2023-02-11T04:36:33.052Z,15.02
2023-02-11T04:39:35.874Z,14.68
2023-02-11T04:42:38.451Z,15.10
2023-02-11T04:45:41.031Z,16.50
2023-02-11T04:48:43.833Z,15.63
2023-02-11T04:51:49.207Z,14.90
2023-02-11T04:54:52.104Z,14.32
2023-02-11T04:57:55.491Z,15.68
2023-02-11T05:01:10.046Z,17.05
2023-02-11T05:04:12.822Z,14.27
2023-02-11T05:07:15.377Z,14.50
2023-02-11T05:10:18.171Z,16.13
2023-02-11T05:13:20.715Z,15.70
2023-02-11T05:16:23.388Z,16.45
2023-02-11T05:19:26.038Z,16.27
2023-02-11T05:22:28.671Z,16.80
2023-02-11T05:25:31.291Z,19.63
2023-02-11T05:28:33.952Z,20.00
2023-02-11T05:31:36.593Z,22.55
2023-02-11T05:34:39.192Z,18.27
2023-02-11T05:37:41.791Z,20.88
2023-02-11T05:40:44.808Z,21.35
2023-02-11T05:43:53.686Z,22.25
2023-02-11T05:46:56.415Z,20.85
2023-02-11T05:49:59.034Z,19.47
2023-02-11T05:53:01.686Z,17.70
2023-02-11T05:56:04.573Z,20.00
2023-02-11T05:59:07.155Z,19.00
2023-02-11T06:02:10.700Z,20.92
2023-02-11T06:05:13.340Z,23.20
2023-02-11T06:08:16.016Z,20.85
2023-02-11T06:11:18.877Z,19.08
2023-02-11T06:14:21.411Z,18.30
2023-02-11T06:17:23.950Z,18.75
2023-02-11T06:20:26.579Z,17.27
2023-02-11T06:23:30.452Z,17.20
2023-02-11T06:26:33.159Z,20.30
2023-02-11T06:29:36.034Z,18.00
2023-02-11T06:32:44.521Z,18.20
2023-02-11T06:35:47.701Z,18.27
2023-02-11T06:38:50.519Z,18.33
2023-02-11T06:41:53.115Z,20.60
2023-02-11T06:44:55.640Z,23.35
2023-02-11T06:47:58.201Z,22.73
2023-02-11T06:51:05.710Z,23.27
2023-02-11T06:54:08.492Z,22.90
2023-02-11T06:57:10.966Z,22.83
2023-02-11T07:00:14.177Z,21.95
2023-02-11T07:03:16.835Z,20.85
2023-02-11T07:06:22.293Z,20.73
2023-02-11T07:09:24.826Z,21.67
2023-02-11T07:12:27.451Z,21.65
2023-02-11T07:15:30.043Z,26.50
2023-02-11T07:18:32.716Z,23.50
2023-02-11T07:21:35.255Z,27.97
2023-02-11T07:24:37.767Z,28.00
2023-02-11T07:27:40.314Z,28.73
2023-02-11T07:30:42.972Z,26.13
2023-02-11T07:33:46.194Z,21.45
2023-02-11T07:36:49.218Z,19.47
2023-02-11T07:39:51.823Z,21.10
2023-02-11T07:42:54.328Z,22.05
2023-02-11T07:45:56.893Z,21.70
2023-02-11T07:48:59.420Z,20.73
2023-02-11T07:52:01.959Z,20.70
2023-02-11T07:55:05.063Z,19.48
2023-02-11T07:58:07.753Z,20.15
2023-02-11T08:01:17.458Z,20.25
2023-02-11T08:04:20.099Z,21.08
2023-02-11T08:07:22.744Z,21.70
2023-02-11T08:10:28.271Z,22.55
2023-02-11T08:13:30.982Z,23.15
2023-02-11T08:16:35.872Z,22.25
2023-02-11T08:19:39.841Z,21.90
2023-02-11T08:22:42.416Z,21.50
2023-02-11T08:25:45.046Z,21.00
2023-02-11T08:28:50.255Z,21.80
2023-02-11T08:31:52.833Z,21.67
2023-02-11T08:34:55.359Z,24.40
2023-02-11T08:37:58.023Z,25.33
2023-02-11T08:41:00.887Z,22.17
2023-02-11T08:44:03.557Z,21.83
2023-02-11T08:47:06.120Z,20.52
2023-02-11T08:50:09.284Z,22.33
2023-02-11T08:53:11.843Z,21.50
2023-02-11T08:56:16.328Z,18.38
2023-02-11T08:59:18.896Z,17.63
2023-02-11T09:02:21.598Z,16.60
2023-02-11T09:05:24.555Z,19.30
2023-02-11T09:08:27.232Z,20.23
2023-02-11T09:11:32.672Z,21.27
2023-02-11T09:14:35.304Z,19.75
2023-02-11T09:17:37.894Z,18.67
2023-02-11T09:20:40.518Z,16.58
2023-02-11T09:23:47.949Z,16.93
2023-02-11T09:26:50.576Z,18.55
2023-02-11T09:29:53.204Z,21.98
2023-02-11T09:32:55.733Z,14.85
2023-02-11T09:36:01.893Z,17.42
2023-02-11T09:39:06.045Z,15.90
2023-02-11T09:42:46.072Z,16.23
2023-02-11T09:45:49.894Z,15.20
2023-02-11T09:48:54.759Z,12.73
2023-02-11T09:52:09.583Z,13.02
2023-02-11T09:55:34.197Z,12.57
2023-02-11T09:58:39.211Z,12.00
2023-02-11T10:01:49.022Z,11.38
2023-02-11T10:05:05.237Z,11.88
2023-02-11T10:08:40.712Z,12.40
2023-02-11T10:12:12.348Z,8.93
2023-02-11T10:15:48.369Z,12.07
2023-02-11T10:19:00.421Z,12.70
2023-02-11T10:22:23.140Z,9.63
2023-02-11T10:25:38.854Z,11.15
2023-02-11T10:28:44.601Z,8.07
2023-02-11T10:31:48.299Z,9.63
2023-02-11T10:34:52.380Z,10.30
2023-02-11T10:37:56.109Z,10.10
2023-02-11T10:40:58.778Z,10.80
2023-02-11T10:44:01.831Z,11.23
2023-02-11T10:47:13.032Z,9.52
2023-02-11T10:50:29.917Z,11.02
2023-02-11T10:53:33.814Z,9.63
2023-02-11T10:56:38.313Z,10.38
2023-02-11T10:59:40.923Z,11.47
2023-02-11T11:02:44.633Z,11.68
2023-02-11T11:05:57.415Z,10.48
2023-02-11T11:09:04.754Z,10.60
2023-02-11T11:12:25.504Z,10.13
2023-02-11T11:15:32.704Z,10.70
2023-02-11T11:18:35.782Z,8.93
2023-02-11T11:21:50.465Z,12.00
2023-02-11T11:24:55.339Z,9.73
2023-02-11T11:28:01.390Z,10.88
2023-02-11T11:31:04.184Z,10.90
2023-02-11T11:34:29.914Z,13.35
2023-02-11T11:37:34.583Z,10.13
2023-02-11T11:40:37.615Z,11.30
2023-02-11T11:44:14.660Z,10.30
2023-02-11T11:47:25.637Z,11.37
2023-02-11T11:50:35.259Z,12.15
2023-02-11T11:53:51.453Z,11.60
2023-02-11T11:57:00.076Z,10.52
2023-02-11T12:00:02.772Z,11.30
2023-02-11T12:03:39.694Z,9.67
2023-02-11T12:06:47.949Z,10.70
2023-02-11T12:10:11.955Z,11.45
2023-02-11T12:13:29.751Z,9.73
2023-02-11T12:16:35.293Z,11.52
2023-02-11T12:20:02.268Z,13.23
2023-02-11T12:23:25.790Z,12.30
2023-02-11T12:26:42.136Z,11.57
2023-02-11T12:30:03.303Z,13.55
2023-02-11T12:33:26.153Z,11.88
2023-02-11T12:36:47.379Z,13.07
2023-02-11T12:40:11.242Z,12.90
2023-02-11T12:43:35.588Z,12.88
2023-02-11T12:47:03.210Z,11.00
2023-02-11T12:50:30.166Z,10.25
2023-02-11T12:53:39.110Z,11.10
2023-02-11T12:56:47.920Z,12.65
2023-02-11T13:00:12.774Z,11.20
2023-02-11T13:03:32.854Z,12.95
2023-02-11T13:06:40.418Z,11.60
2023-02-11T13:09:48.945Z,11.10
2023-02-11T13:13:11.532Z,9.75
2023-02-11T13:16:37.550Z,12.55
2023-02-11T13:20:02.884Z,10.18
2023-02-11T13:23:10.202Z,16.48
2023-02-11T13:26:27.766Z,14.40
2023-02-11T13:30:04.429Z,17.00
2023-02-11T13:33:17.750Z,17.63
2023-02-11T13:36:28.877Z,12.55
2023-02-11T13:39:31.496Z,11.48
2023-02-11T13:42:47.828Z,14.27
2023-02-11T13:46:00.154Z,13.25
2023-02-11T13:49:02.805Z,14.82
2023-02-11T13:52:16.613Z,19.45
2023-02-11T13:55:23.653Z,13.70
2023-02-11T13:58:29.281Z,15.30
2023-02-11T14:02:17.852Z,14.57
2023-02-11T14:05:48.232Z,13.23
2023-02-11T14:09:10.523Z,14.20
2023-02-11T14:12:22.543Z,14.30
2023-02-11T14:15:38.210Z,14.20
2023-02-11T14:18:52.001Z,14.30
2023-02-11T14:22:02.374Z,13.80
2023-02-11T14:25:16.208Z,16.20
2023-02-11T14:28:26.881Z,15.45
2023-02-11T14:31:34.246Z,20.43
2023-02-11T14:35:44.660Z,18.45
2023-02-11T14:39:06.628Z,18.88
2023-02-11T14:42:19.981Z,17.73
2023-02-11T14:45:30.527Z,19.05
2023-02-11T14:48:38.305Z,17.63
2023-02-11T14:51:44.183Z,17.85
2023-02-11T14:54:49.312Z,17.35
2023-02-11T14:58:28.077Z,18.95
2023-02-11T15:01:40.838Z,19.05
2023-02-11T15:04:44.057Z,22.80
2023-02-11T15:07:51.915Z,22.65
2023-02-11T15:10:55.508Z,22.38
2023-02-11T15:14:01.940Z,18.40
2023-02-11T15:17:09.425Z,20.92
2023-02-11T15:20:26.861Z,19.93
2023-02-11T15:23:33.446Z,21.67
2023-02-11T15:26:36.254Z,20.15
2023-02-11T15:29:41.782Z,18.27
2023-02-11T15:32:53.254Z,19.42
2023-02-11T15:35:57.023Z,20.50
2023-02-11T15:39:42.227Z,22.27
2023-02-11T15:43:14.223Z,18.38
2023-02-11T15:46:37.913Z,19.23
2023-02-11T15:49:45.431Z,20.02
2023-02-11T15:53:00.165Z,20.00
2023-02-11T15:56:25.414Z,21.88
2023-02-11T15:59:36.255Z,20.48
2023-02-11T16:02:45.288Z,22.27
2023-02-11T16:05:47.929Z,21.70
2023-02-11T16:09:22.149Z,19.60
2023-02-11T16:12:27.283Z,19.77
2023-02-11T16:15:30.655Z,20.17
2023-02-11T16:18:52.024Z,20.60
2023-02-11T16:22:07.981Z,19.67
2023-02-11T16:25:19.279Z,16.13
2023-02-11T16:28:22.183Z,14.82
2023-02-11T16:31:33.465Z,16.80
2023-02-11T16:34:41.705Z,16.13
2023-02-11T16:37:44.425Z,18.63
2023-02-11T16:40:49.464Z,17.07
2023-02-11T16:43:52.378Z,18.60
2023-02-11T16:47:01.658Z,17.33
2023-02-11T16:50:08.564Z,18.05
2023-02-11T16:53:11.733Z,17.27
2023-02-11T16:56:19.299Z,19.50
2023-02-11T16:59:22.023Z,19.52
2023-02-11T17:02:32.253Z,19.42
2023-02-11T17:05:53.216Z,18.88
2023-02-11T17:08:57.709Z,18.38
2023-02-11T17:12:00.553Z,17.47
2023-02-11T17:15:06.632Z,16.33
2023-02-11T17:18:14.755Z,18.27
2023-02-11T17:21:29.861Z,16.98
2023-02-11T17:24:32.743Z,18.48
2023-02-11T17:27:38.612Z,19.03
2023-02-11T17:30:44.251Z,16.50
2023-02-11T17:33:56.668Z,18.17
2023-02-11T17:37:00.349Z,19.60
2023-02-11T17:40:03.208Z,19.20
2023-02-11T17:43:08.117Z,19.63
2023-02-11T17:46:13.110Z,19.00
2023-02-11T17:49:23.671Z,18.17
2023-02-11T17:52:28.284Z,18.15
2023-02-11T17:55:34.873Z,17.25
2023-02-11T17:58:37.533Z,18.80
2023-02-11T18:01:42.399Z,17.40
2023-02-11T18:04:45.316Z,18.70
2023-02-11T18:07:48.855Z,18.83
2023-02-11T18:10:51.524Z,17.02
2023-02-11T18:14:02.366Z,16.60
2023-02-11T18:17:07.696Z,16.77
2023-02-11T18:20:10.848Z,15.98
2023-02-11T18:23:13.606Z,13.88
2023-02-11T18:26:18.325Z,14.90
2023-02-11T18:29:23.596Z,14.70
2023-02-11T18:32:27.063Z,15.70
2023-02-11T18:35:32.006Z,16.55
2023-02-11T18:38:35.676Z,16.00
2023-02-11T18:41:40.774Z,17.60
2023-02-11T18:44:43.513Z,16.37
2023-02-11T18:47:46.244Z,14.65
2023-02-11T18:50:48.984Z,15.70
2023-02-11T18:53:51.590Z,16.20
2023-02-11T18:56:56.652Z,17.75
2023-02-11T18:59:59.360Z,17.90
2023-02-11T19:03:05.180Z,17.45
2023-02-11T19:06:13.120Z,17.95
2023-02-11T19:09:18.125Z,16.98
2023-02-11T19:12:21.046Z,20.45
2023-02-11T19:15:23.835Z,16.33
2023-02-11T19:18:27.636Z,14.80
2023-02-11T19:21:30.604Z,17.10
2023-02-11T19:24:33.986Z,13.43
2023-02-11T19:27:37.028Z,16.90
2023-02-11T19:30:40.446Z,15.67
2023-02-11T19:33:43.479Z,16.17
2023-02-11T19:36:46.647Z,17.45
2023-02-11T19:39:49.471Z,16.40
2023-02-11T19:42:52.318Z,19.90
2023-02-11T19:45:56.790Z,34.80
2023-02-11T19:49:00.899Z,28.98
2023-02-11T19:52:03.691Z,21.25
2023-02-11T19:55:07.155Z,22.98
2023-02-11T19:58:09.736Z,22.70
2023-02-11T20:01:16.564Z,26.57
2023-02-11T20:04:19.923Z,22.67
2023-02-11T20:07:28.215Z,21.50
2023-02-11T20:10:31.001Z,18.90
2023-02-11T20:13:34.322Z,19.98
2023-02-11T20:16:48.074Z,17.43
2023-02-11T20:19:51.789Z,18.70
2023-02-11T20:22:54.508Z,19.95
2023-02-11T20:25:57.354Z,15.85
2023-02-11T20:29:03.850Z,16.08
2023-02-11T20:32:07.594Z,13.40
2023-02-11T20:35:13.547Z,16.15
2023-02-11T20:38:16.643Z,16.17
2023-02-11T20:41:28.614Z,13.68
2023-02-11T20:44:31.445Z,14.88
2023-02-11T20:47:34.218Z,14.70
2023-02-11T20:50:37.079Z,14.95
2023-02-11T20:53:44.064Z,16.88
2023-02-11T20:56:48.226Z,13.75
2023-02-11T20:59:51.196Z,13.48
2023-02-11T21:02:53.907Z,13.20
2023-02-11T21:05:58.911Z,15.88
2023-02-11T21:09:02.257Z,15.48
2023-02-11T21:12:05.575Z,16.30
2023-02-11T21:15:12.792Z,11.93
2023-02-11T21:18:15.636Z,13.13
2023-02-11T21:21:19.614Z,12.77
2023-02-11T21:24:22.351Z,15.43
2023-02-11T21:27:31.117Z,15.27
2023-02-11T21:30:34.067Z,12.10
2023-02-11T21:33:36.708Z,11.37
2023-02-11T21:36:39.567Z,12.10
2023-02-11T21:39:43.366Z,13.45
2023-02-11T21:42:46.025Z,11.18
2023-02-11T21:45:51.298Z,9.98
2023-02-11T21:48:54.167Z,9.40
2023-02-11T21:51:56.798Z,10.32
2023-02-11T21:54:59.456Z,6.47
2023-02-11T21:58:02.228Z,6.22
2023-02-11T22:01:18.948Z,7.05
2023-02-11T22:04:21.837Z,7.27
2023-02-11T22:07:25.088Z,7.55
2023-02-11T22:10:27.672Z,6.47
2023-02-11T22:13:31.811Z,6.20
2023-02-11T22:16:41.647Z,6.70
2023-02-11T22:19:47.204Z,6.20
2023-02-11T22:22:50.918Z,6.82
2023-02-11T22:25:53.725Z,6.97
2023-02-11T22:28:57.299Z,6.80
2023-02-11T22:32:00.059Z,7.63
2023-02-11T22:35:02.788Z,6.80
2023-02-11T22:38:05.351Z,7.45
2023-02-11T22:41:10.289Z,8.13
2023-02-11T22:44:17.380Z,7.88
2023-02-11T22:47:19.908Z,7.47
2023-02-11T22:50:22.458Z,7.30
2023-02-11T22:53:25.657Z,6.47
2023-02-11T22:56:29.790Z,7.55
2023-02-11T22:59:32.446Z,7.90
2023-02-11T23:02:35.059Z,8.57
2023-02-11T23:05:41.628Z,8.00
2023-02-11T23:08:44.809Z,7.60
2023-02-11T23:11:49.477Z,8.15
2023-02-11T23:14:52.049Z,7.07
2023-02-11T23:17:57.283Z,7.88
2023-02-11T23:21:12.677Z,8.60
2023-02-11T23:24:15.766Z,7.75
2023-02-11T23:27:18.409Z,7.57
2023-02-11T23:30:22.083Z,7.18
2023-02-11T23:33:27.634Z,7.28
2023-02-11T23:36:30.649Z,8.53
2023-02-11T23:39:33.189Z,8.15
2023-02-11T23:42:35.732Z,6.97
2023-02-11T23:45:43.138Z,8.63
2023-02-11T23:48:48.485Z,8.52
2023-02-11T23:51:51.092Z,7.70
2023-02-11T23:54:53.732Z,9.00
2023-02-11T23:57:56.464Z,7.53
